createdAt,value
2018-03-04T00:00:28.474Z,0
2018-03-04T00:01:29.040Z,0
2018-03-04T00:02:29.608Z,0
2018-03-04T00:03:30.171Z,0
2018-03-04T00:04:30.736Z,0
2018-03-04T00:05:31.305Z,0
2018-03-04T00:06:31.885Z,0
2018-03-04T00:07:32.450Z,0
2018-03-04T00:08:33.017Z,0
2018-03-04T00:09:33.582Z,0
2018-03-04T00:10:34.150Z,0
2018-03-04T00:11:34.716Z,0
2018-03-04T00:12:35.285Z,0
2018-03-04T00:13:35.850Z,0
2018-03-04T00:14:36.417Z,0
2018-03-04T00:15:36.984Z,0
2018-03-04T00:16:37.559Z,0
2018-03-04T00:17:38.122Z,0
2018-03-04T00:18:38.684Z,0
2018-03-04T00:19:39.253Z,0
2018-03-04T00:20:39.821Z,0
2018-03-04T00:21:40.388Z,0
2018-03-04T00:22:40.954Z,0
2018-03-04T00:23:41.521Z,0
2018-03-04T00:24:42.090Z,0
2018-03-04T00:25:42.674Z,0
2018-03-04T00:26:43.239Z,0
2018-03-04T00:27:43.807Z,0
2018-03-04T00:28:44.379Z,0
2018-03-04T00:29:44.939Z,0
2018-03-04T00:30:45.508Z,0
2018-03-04T00:31:46.075Z,0
2018-03-04T00:32:46.640Z,0
2018-03-04T00:33:47.210Z,0
2018-03-04T00:34:47.777Z,0
2018-03-04T00:35:48.343Z,0
2018-03-04T00:36:48.909Z,0
2018-03-04T00:37:49.477Z,0
2018-03-04T00:38:50.047Z,0
2018-03-04T00:39:50.612Z,0
2018-03-04T00:40:51.179Z,0
2018-03-04T00:41:51.747Z,0
2018-03-04T00:42:52.312Z,0
2018-03-04T00:43:52.880Z,0
2018-03-04T00:44:53.447Z,0
2018-03-04T00:45:54.014Z,0
2018-03-04T00:46:54.583Z,0
2018-03-04T00:47:55.166Z,0
2018-03-04T00:48:55.733Z,0
2018-03-04T00:49:56.299Z,0
2018-03-04T00:50:56.868Z,0
2018-03-04T00:51:57.436Z,0
2018-03-04T00:52:58.018Z,0
2018-03-04T00:53:58.587Z,0
2018-03-04T00:54:59.153Z,0
2018-03-04T00:55:59.721Z,0
2018-03-04T00:57:00.292Z,0
2018-03-04T00:58:00.873Z,0
2018-03-04T00:59:01.441Z,0
2018-03-04T01:00:02.008Z,0
2018-03-04T01:01:02.575Z,0
2018-03-04T01:02:03.141Z,0
2018-03-04T01:03:03.712Z,0
2018-03-04T01:04:04.276Z,0
2018-03-04T01:05:04.842Z,0
2018-03-04T01:06:05.413Z,0
2018-03-04T01:07:05.977Z,0
2018-03-04T01:08:06.545Z,0
2018-03-04T01:09:07.113Z,0
2018-03-04T01:10:07.679Z,0
2018-03-04T01:11:08.246Z,0
2018-03-04T01:12:08.814Z,0
2018-03-04T01:13:09.380Z,0
2018-03-04T01:14:09.950Z,0
2018-03-04T01:15:10.516Z,0
2018-03-04T01:16:11.083Z,0
2018-03-04T01:17:11.655Z,0
2018-03-04T01:18:12.220Z,0
2018-03-04T01:19:12.786Z,0
2018-03-04T01:20:13.356Z,0
2018-03-04T01:21:13.923Z,0
2018-03-04T01:22:14.489Z,0
2018-03-04T01:23:15.056Z,0
2018-03-04T01:24:15.622Z,0
2018-03-04T01:25:16.191Z,0
2018-03-04T01:26:16.757Z,0
2018-03-04T01:27:17.323Z,0
2018-03-04T01:28:17.889Z,0
2018-03-04T01:29:18.473Z,0
2018-03-04T01:30:19.041Z,0
2018-03-04T01:31:19.611Z,0
2018-03-04T01:32:20.177Z,0
2018-03-04T01:33:20.743Z,0
2018-03-04T01:34:21.312Z,0
2018-03-04T01:35:21.878Z,0
2018-03-04T01:36:22.460Z,0
2018-03-04T01:37:23.032Z,0
2018-03-04T01:38:23.594Z,0
2018-03-04T01:39:24.160Z,0
2018-03-04T01:40:24.727Z,0
2018-03-04T01:41:25.309Z,0
2018-03-04T01:42:25.875Z,0
2018-03-04T01:43:26.442Z,0
2018-03-04T01:44:27.008Z,0
2018-03-04T01:45:27.575Z,0
2018-03-04T01:46:28.143Z,0
2018-03-04T01:47:28.709Z,0
2018-03-04T01:48:29.276Z,0
2018-03-04T01:49:29.841Z,0
2018-03-04T01:50:30.408Z,0
2018-03-04T01:51:30.976Z,0
2018-03-04T01:52:31.542Z,0
2018-03-04T01:53:32.107Z,0
2018-03-04T01:54:32.681Z,0
2018-03-04T01:55:33.242Z,0
2018-03-04T01:56:33.809Z,0
2018-03-04T01:57:34.374Z,0
2018-03-04T01:58:34.942Z,0
2018-03-04T01:59:35.509Z,0
2018-03-04T02:00:36.076Z,0
2018-03-04T02:01:36.643Z,0
2018-03-04T02:02:37.208Z,0
2018-03-04T02:03:37.775Z,0
2018-03-04T02:04:38.344Z,0
2018-03-04T02:05:38.910Z,0
2018-03-04T02:06:39.477Z,0
2018-03-04T02:07:40.045Z,0
2018-03-04T02:08:40.611Z,0
2018-03-04T02:09:41.177Z,0
2018-03-04T02:10:41.744Z,0
2018-03-04T02:11:42.310Z,0
2018-03-04T02:12:42.878Z,0
2018-03-04T02:13:43.443Z,0
2018-03-04T02:14:44.011Z,0
2018-03-04T02:15:44.577Z,0
2018-03-04T02:16:45.144Z,0
2018-03-04T02:17:45.712Z,0
2018-03-04T02:18:46.278Z,0
2018-03-04T02:19:46.844Z,0
2018-03-04T02:20:47.411Z,0
2018-03-04T02:21:47.977Z,0
2018-03-04T02:22:48.546Z,0
2018-03-04T02:23:49.112Z,0
2018-03-04T02:24:49.678Z,0
2018-03-04T02:25:50.244Z,0
2018-03-04T02:26:50.814Z,0
2018-03-04T02:27:51.380Z,0
2018-03-04T02:28:51.949Z,0
2018-03-04T02:29:52.526Z,0
2018-03-04T02:30:53.100Z,0
2018-03-04T02:31:53.674Z,0
2018-03-04T02:32:54.242Z,0
2018-03-04T02:33:54.812Z,0
2018-03-04T02:34:55.377Z,0
2018-03-04T02:35:55.941Z,0
2018-03-04T02:36:56.509Z,0
2018-03-04T02:37:57.077Z,0
2018-03-04T02:38:57.649Z,0
2018-03-04T02:39:58.212Z,0
2018-03-04T02:40:58.779Z,0
2018-03-04T02:41:59.349Z,0
2018-03-04T02:42:59.928Z,0
2018-03-04T02:44:13.232Z,0
2018-03-04T02:45:13.798Z,0
2018-03-04T02:46:14.367Z,0
2018-03-04T02:47:14.936Z,0
2018-03-04T02:48:15.503Z,0
2018-03-04T02:49:16.069Z,0
2018-03-04T02:50:16.634Z,0
2018-03-04T02:51:17.203Z,0
2018-03-04T02:52:17.787Z,0
2018-03-04T02:53:18.371Z,0
2018-03-04T02:54:18.944Z,0
2018-03-04T02:55:19.499Z,0
2018-03-04T02:56:20.072Z,0
2018-03-04T02:57:20.633Z,0
2018-03-04T02:58:21.202Z,0
2018-03-04T02:59:21.769Z,0
2018-03-04T03:00:22.335Z,0
2018-03-04T03:01:22.906Z,0
2018-03-04T03:02:23.469Z,0
2018-03-04T03:03:24.051Z,0
2018-03-04T03:04:24.617Z,0
2018-03-04T03:05:25.183Z,0
2018-03-04T03:06:25.769Z,0
2018-03-04T03:07:26.317Z,0
2018-03-04T03:08:26.885Z,0
2018-03-04T03:09:27.452Z,0
2018-03-04T03:10:28.019Z,0
2018-03-04T03:11:28.585Z,0
2018-03-04T03:12:29.157Z,0
2018-03-04T03:13:29.720Z,0
2018-03-04T03:14:30.286Z,0
2018-03-04T03:15:30.855Z,0
2018-03-04T03:16:31.422Z,0
2018-03-04T03:17:31.989Z,0
2018-03-04T03:18:32.557Z,0
2018-03-04T03:19:33.125Z,0
2018-03-04T03:20:33.698Z,0
2018-03-04T03:21:34.260Z,0
2018-03-04T03:22:34.826Z,0
2018-03-04T03:23:35.397Z,0
2018-03-04T03:24:35.963Z,0
2018-03-04T03:25:36.529Z,0
2018-03-04T03:26:37.100Z,0
2018-03-04T03:27:37.661Z,0
2018-03-04T03:28:38.230Z,0
2018-03-04T03:29:38.797Z,0
2018-03-04T03:30:39.377Z,0
2018-03-04T03:31:39.946Z,0
2018-03-04T03:32:40.511Z,0
2018-03-04T03:33:41.078Z,0
2018-03-04T03:34:41.647Z,0
2018-03-04T03:35:42.213Z,0
2018-03-04T03:36:42.778Z,0
2018-03-04T03:37:43.344Z,0
2018-03-04T03:38:43.910Z,0
2018-03-04T03:39:44.490Z,0
2018-03-04T03:40:45.070Z,0
2018-03-04T03:41:45.636Z,0
2018-03-04T03:42:46.202Z,0
2018-03-04T03:43:46.777Z,0
2018-03-04T03:44:47.336Z,0
2018-03-04T03:45:47.902Z,0
2018-03-04T03:46:48.470Z,0
2018-03-04T03:47:49.041Z,0
2018-03-04T03:48:49.604Z,0
2018-03-04T03:49:50.169Z,0
2018-03-04T03:50:50.736Z,0
2018-03-04T03:51:51.302Z,0
2018-03-04T03:52:51.870Z,0
2018-03-04T03:53:52.438Z,0
2018-03-04T03:54:53.006Z,0
2018-03-04T03:55:53.575Z,0
2018-03-04T03:56:54.155Z,0
2018-03-04T03:57:54.723Z,0
2018-03-04T03:58:55.289Z,0
2018-03-04T03:59:55.857Z,0
2018-03-04T04:00:56.428Z,0
2018-03-04T04:01:56.994Z,0
2018-03-04T04:02:57.561Z,0
2018-03-04T04:03:58.127Z,0
2018-03-04T04:04:58.707Z,0
2018-03-04T04:05:59.274Z,0
2018-03-04T04:06:59.840Z,0
2018-03-04T04:08:00.408Z,0
2018-03-04T04:09:00.977Z,0
2018-03-04T04:10:01.544Z,0
2018-03-04T04:11:02.112Z,0
2018-03-04T04:12:02.678Z,0
2018-03-04T04:13:03.246Z,0
2018-03-04T04:14:03.815Z,0
2018-03-04T04:15:04.381Z,0
2018-03-04T04:16:04.949Z,0
2018-03-04T04:17:05.517Z,0
2018-03-04T04:18:06.084Z,0
2018-03-04T04:19:06.650Z,0
2018-03-04T04:20:07.216Z,0
2018-03-04T04:21:07.785Z,0
2018-03-04T04:22:08.354Z,0
2018-03-04T04:23:08.921Z,0
2018-03-04T04:24:09.487Z,0
2018-03-04T04:25:10.069Z,0
2018-03-04T04:26:10.651Z,0
2018-03-04T04:27:11.247Z,0
2018-03-04T04:28:11.786Z,0
2018-03-04T04:29:12.353Z,0
2018-03-04T04:30:12.920Z,0
2018-03-04T04:31:13.487Z,0
2018-03-04T04:32:14.058Z,0
2018-03-04T04:33:14.622Z,0
2018-03-04T04:34:15.190Z,0
2018-03-04T04:35:15.757Z,0
2018-03-04T04:36:16.324Z,0
2018-03-04T04:37:16.895Z,0
2018-03-04T04:38:17.466Z,0
2018-03-04T04:39:18.030Z,0
2018-03-04T04:40:18.599Z,0
2018-03-04T04:41:19.165Z,0
2018-03-04T04:42:19.733Z,0
2018-03-04T04:43:20.305Z,0
2018-03-04T04:44:20.918Z,0
2018-03-04T04:45:21.465Z,0
2018-03-04T04:46:22.030Z,0
2018-03-04T04:47:22.600Z,0
2018-03-04T04:48:23.166Z,0
2018-03-04T04:49:23.734Z,0
2018-03-04T04:50:24.301Z,0
2018-03-04T04:51:24.869Z,0
2018-03-04T04:52:25.440Z,0
2018-03-04T04:53:26.009Z,0
2018-03-04T04:54:26.587Z,0
2018-03-04T04:55:27.154Z,0
2018-03-04T04:56:27.720Z,0
2018-03-04T04:57:28.288Z,0
2018-03-04T04:58:28.856Z,0
2018-03-04T04:59:29.423Z,0
2018-03-04T05:00:29.990Z,0
2018-03-04T05:01:30.558Z,0
2018-03-04T05:02:31.125Z,0
2018-03-04T05:03:31.693Z,0
2018-03-04T05:04:32.260Z,0
2018-03-04T05:05:32.827Z,0
2018-03-04T05:06:33.396Z,0
2018-03-04T05:07:33.962Z,0
2018-03-04T05:08:34.529Z,0
2018-03-04T05:09:35.097Z,0
2018-03-04T05:10:35.680Z,0
2018-03-04T05:11:36.237Z,0
2018-03-04T05:12:36.800Z,0
2018-03-04T05:13:37.367Z,0
2018-03-04T05:14:37.936Z,0
2018-03-04T05:15:38.518Z,0
2018-03-04T05:16:39.085Z,0
2018-03-04T05:17:39.652Z,0
2018-03-04T05:18:40.220Z,0
2018-03-04T05:19:40.787Z,0
2018-03-04T05:20:41.358Z,0
2018-03-04T05:21:41.922Z,0
2018-03-04T05:22:42.490Z,0
2018-03-04T05:23:43.056Z,0
2018-03-04T05:24:43.624Z,0
2018-03-04T05:25:44.192Z,0
2018-03-04T05:26:44.758Z,0
2018-03-04T05:27:45.324Z,0
2018-03-04T05:28:45.894Z,0
2018-03-04T05:29:46.461Z,0
2018-03-04T05:30:47.032Z,0
2018-03-04T05:31:47.610Z,0
2018-03-04T05:32:48.176Z,0
2018-03-04T05:33:48.744Z,0
2018-03-04T05:34:49.312Z,0
2018-03-04T05:35:49.880Z,0
2018-03-04T05:36:50.447Z,0
2018-03-04T05:37:51.015Z,0
2018-03-04T05:38:51.583Z,0
2018-03-04T05:39:52.150Z,0
2018-03-04T05:40:52.733Z,0
2018-03-04T05:41:53.317Z,0
2018-03-04T05:42:53.881Z,0
2018-03-04T05:43:54.450Z,0
2018-03-04T05:44:55.019Z,0
2018-03-04T05:45:55.586Z,0
2018-03-04T05:46:56.152Z,0
2018-03-04T05:47:56.720Z,0
2018-03-04T05:48:57.287Z,0
2018-03-04T05:49:57.855Z,0
2018-03-04T05:50:58.422Z,0
2018-03-04T05:51:58.988Z,0
2018-03-04T05:52:59.555Z,0
2018-03-04T05:54:00.121Z,0
2018-03-04T05:55:00.689Z,0
2018-03-04T05:56:01.256Z,0
2018-03-04T05:57:01.824Z,0
2018-03-04T05:58:02.406Z,0
2018-03-04T05:59:02.972Z,0
2018-03-04T06:00:03.541Z,0
2018-03-04T06:01:04.143Z,0
2018-03-04T06:02:04.675Z,0
2018-03-04T06:03:05.247Z,0
2018-03-04T06:04:05.864Z,0
2018-03-04T06:05:06.389Z,0
2018-03-04T06:06:06.958Z,0
2018-03-04T06:07:07.527Z,0
2018-03-04T06:08:08.094Z,0
2018-03-04T06:09:08.661Z,0
2018-03-04T06:10:09.230Z,0
2018-03-04T06:11:09.798Z,0
2018-03-04T06:12:10.366Z,0
2018-03-04T06:13:10.933Z,0
2018-03-04T06:14:11.501Z,0
2018-03-04T06:15:12.079Z,0
2018-03-04T06:16:12.639Z,0
2018-03-04T06:17:13.210Z,0
2018-03-04T06:18:13.777Z,0
2018-03-04T06:19:14.346Z,0
2018-03-04T06:20:14.913Z,0
2018-03-04T06:21:15.482Z,0
2018-03-04T06:22:16.051Z,0
2018-03-04T06:23:16.618Z,0
2018-03-04T06:24:17.187Z,0
2018-03-04T06:25:17.760Z,0
2018-03-04T06:26:18.338Z,0
2018-03-04T06:27:18.908Z,0
2018-03-04T06:28:19.492Z,0
2018-03-04T06:29:20.059Z,0
2018-03-04T06:30:20.629Z,0
2018-03-04T06:31:21.197Z,0
2018-03-04T06:32:21.766Z,0
2018-03-04T06:33:22.335Z,0
2018-03-04T06:34:22.905Z,0
2018-03-04T06:35:23.470Z,0
2018-03-04T06:36:24.037Z,0
2018-03-04T06:37:24.605Z,0
2018-03-04T06:38:25.174Z,0
2018-03-04T06:39:25.757Z,0
2018-03-04T06:40:26.327Z,0
2018-03-04T06:41:26.910Z,0
2018-03-04T06:42:27.478Z,0
2018-03-04T06:43:28.046Z,0
2018-03-04T06:44:28.617Z,0
2018-03-04T06:45:29.183Z,0
2018-03-04T06:46:29.750Z,0
2018-03-04T06:47:30.333Z,0
2018-03-04T06:48:30.902Z,0
2018-03-04T06:49:31.469Z,0
2018-03-04T06:50:32.039Z,0
2018-03-04T06:51:32.606Z,0
2018-03-04T06:52:33.173Z,0
2018-03-04T06:53:33.741Z,0
2018-03-04T06:54:34.310Z,0
2018-03-04T06:55:34.881Z,0
2018-03-04T06:56:35.448Z,0
2018-03-04T06:57:36.015Z,0
2018-03-04T06:58:36.582Z,0
2018-03-04T06:59:37.169Z,0
2018-03-04T07:00:37.732Z,0
2018-03-04T07:01:38.301Z,0
2018-03-04T07:02:38.870Z,0
2018-03-04T07:03:39.437Z,0
2018-03-04T07:04:40.007Z,0
2018-03-04T07:05:40.576Z,0
2018-03-04T07:06:41.141Z,0
2018-03-04T07:07:41.710Z,0
2018-03-04T07:08:42.276Z,0
2018-03-04T07:09:42.858Z,0
2018-03-04T07:10:43.425Z,0
2018-03-04T07:11:43.993Z,0
2018-03-04T07:12:44.561Z,0
2018-03-04T07:13:45.129Z,0
2018-03-04T07:14:45.701Z,0
2018-03-04T07:15:46.269Z,5
2018-03-04T07:16:46.838Z,5
2018-03-04T07:17:47.405Z,5
2018-03-04T07:18:47.977Z,5
2018-03-04T07:19:48.543Z,5
2018-03-04T07:20:49.112Z,5
2018-03-04T07:21:49.682Z,5
2018-03-04T07:22:50.251Z,5
2018-03-04T07:23:50.823Z,5
2018-03-04T07:24:51.388Z,5
2018-03-04T07:25:51.957Z,5
2018-03-04T07:26:52.533Z,5
2018-03-04T07:27:53.094Z,5
2018-03-04T07:28:53.666Z,5
2018-03-04T07:29:54.245Z,5
2018-03-04T07:30:54.816Z,5
2018-03-04T07:31:55.385Z,5
2018-03-04T07:32:55.971Z,5
2018-03-04T07:33:56.536Z,5
2018-03-04T07:34:57.106Z,5
2018-03-04T07:35:57.677Z,5
2018-03-04T07:36:58.244Z,5
2018-03-04T07:37:58.815Z,5
2018-03-04T07:38:59.395Z,5
2018-03-04T07:39:59.969Z,5
2018-03-04T07:41:00.551Z,5
2018-03-04T07:42:01.119Z,5
2018-03-04T07:43:01.689Z,5
2018-03-04T07:44:02.261Z,5
2018-03-04T07:45:02.829Z,5
2018-03-04T07:46:03.397Z,5
2018-03-04T07:47:03.965Z,5
2018-03-04T07:48:04.533Z,5
2018-03-04T07:49:05.103Z,5
2018-03-04T07:50:05.672Z,5
2018-03-04T07:51:06.241Z,5
2018-03-04T07:52:06.824Z,5
2018-03-04T07:53:07.394Z,5
2018-03-04T07:54:07.963Z,5
2018-03-04T07:55:08.532Z,5
2018-03-04T07:56:09.102Z,5
2018-03-04T07:57:09.670Z,5
2018-03-04T07:58:10.254Z,5
2018-03-04T07:59:10.824Z,5
2018-03-04T08:00:11.391Z,5
2018-03-04T08:01:11.960Z,5
2018-03-04T08:02:12.530Z,5
2018-03-04T08:03:13.097Z,5
2018-03-04T08:04:13.668Z,5
2018-03-04T08:05:14.238Z,5
2018-03-04T08:06:14.806Z,5
2018-03-04T08:07:15.377Z,5
2018-03-04T08:08:15.947Z,5
2018-03-04T08:09:16.517Z,5
2018-03-04T08:10:17.085Z,5
2018-03-04T08:11:17.656Z,5
2018-03-04T08:12:18.228Z,5
2018-03-04T08:13:18.793Z,5
2018-03-04T08:14:19.374Z,5
2018-03-04T08:15:19.943Z,5
2018-03-04T08:16:20.513Z,5
2018-03-04T08:17:21.082Z,5
2018-03-04T08:18:21.653Z,10
2018-03-04T08:19:22.236Z,10
2018-03-04T08:20:22.806Z,10
2018-03-04T08:21:23.377Z,10
2018-03-04T08:22:23.963Z,10
2018-03-04T08:23:24.533Z,10
2018-03-04T08:24:25.102Z,5
2018-03-04T08:25:25.672Z,5
2018-03-04T08:26:26.245Z,5
2018-03-04T08:27:26.812Z,5
2018-03-04T08:28:27.384Z,5
2018-03-04T08:29:27.949Z,5
2018-03-04T08:30:28.531Z,5
2018-03-04T08:31:29.100Z,5
2018-03-04T08:32:29.668Z,5
2018-03-04T08:33:30.251Z,5
2018-03-04T08:34:30.831Z,5
2018-03-04T08:35:31.392Z,5
2018-03-04T08:36:31.958Z,5
2018-03-04T08:37:32.529Z,5
2018-03-04T08:38:33.111Z,5
2018-03-04T08:39:33.690Z,5
2018-03-04T08:40:34.249Z,5
2018-03-04T08:41:34.818Z,5
2018-03-04T08:42:35.385Z,5
2018-03-04T08:43:35.956Z,5
2018-03-04T08:44:36.527Z,5
2018-03-04T08:45:37.096Z,5
2018-03-04T08:46:37.672Z,5
2018-03-04T08:47:38.240Z,5
2018-03-04T08:48:38.811Z,5
2018-03-04T08:49:39.380Z,5
2018-03-04T08:50:39.949Z,5
2018-03-04T08:51:40.518Z,5
2018-03-04T08:52:41.088Z,5
2018-03-04T08:53:41.659Z,5
2018-03-04T08:54:42.242Z,5
2018-03-04T08:55:42.827Z,5
2018-03-04T08:56:43.396Z,5
2018-03-04T08:57:43.965Z,5
2018-03-04T08:58:44.537Z,5
2018-03-04T08:59:45.105Z,5
2018-03-04T09:00:45.674Z,5
2018-03-04T09:01:46.245Z,5
2018-03-04T09:02:46.828Z,5
2018-03-04T09:03:47.412Z,5
2018-03-04T09:04:47.982Z,5
2018-03-04T09:05:48.552Z,5
2018-03-04T09:06:49.121Z,5
2018-03-04T09:07:49.691Z,5
2018-03-04T09:08:50.262Z,5
2018-03-04T09:09:50.832Z,5
2018-03-04T09:10:51.402Z,5
2018-03-04T09:11:51.972Z,5
2018-03-04T09:12:52.558Z,5
2018-03-04T09:13:53.128Z,10
2018-03-04T09:14:53.698Z,10
2018-03-04T09:15:54.270Z,10
2018-03-04T09:16:54.840Z,10
2018-03-04T09:17:55.413Z,10
2018-03-04T09:18:55.999Z,10
2018-03-04T09:19:56.579Z,10
2018-03-04T09:20:57.156Z,10
2018-03-04T09:21:57.722Z,10
2018-03-04T09:22:58.293Z,10
2018-03-04T09:23:58.865Z,10
2018-03-04T09:24:59.436Z,10
2018-03-04T09:26:00.006Z,15
2018-03-04T09:27:00.579Z,15
2018-03-04T09:28:01.154Z,15
2018-03-04T09:29:01.722Z,15
2018-03-04T09:30:02.295Z,15
2018-03-04T09:31:02.864Z,15
2018-03-04T09:32:03.434Z,15
2018-03-04T09:33:04.010Z,20
2018-03-04T09:34:04.592Z,20
2018-03-04T09:35:05.163Z,20
2018-03-04T09:36:05.734Z,20
2018-03-04T09:37:06.306Z,20
2018-03-04T09:38:06.877Z,20
2018-03-04T09:39:07.449Z,15
2018-03-04T09:40:08.021Z,15
2018-03-04T09:41:08.598Z,15
2018-03-04T09:42:09.162Z,15
2018-03-04T09:43:09.734Z,15
2018-03-04T09:44:10.304Z,15
2018-03-04T09:45:10.876Z,20
2018-03-04T09:46:11.448Z,20
2018-03-04T09:47:12.021Z,20
2018-03-04T09:48:12.592Z,15
2018-03-04T09:49:13.163Z,15
2018-03-04T09:50:13.733Z,15
2018-03-04T09:51:14.306Z,10
2018-03-04T09:52:14.876Z,10
2018-03-04T09:53:15.451Z,15
2018-03-04T09:54:16.040Z,15
2018-03-04T09:55:16.611Z,15
2018-03-04T09:56:17.182Z,10
2018-03-04T09:57:17.766Z,10
2018-03-04T09:58:18.340Z,10
2018-03-04T09:59:18.911Z,10
2018-03-04T10:00:19.482Z,10
2018-03-04T10:01:20.054Z,15
2018-03-04T10:02:20.625Z,15
2018-03-04T10:03:21.194Z,15
2018-03-04T10:04:21.764Z,15
2018-03-04T10:05:22.337Z,15
2018-03-04T10:06:22.922Z,15
2018-03-04T10:07:23.494Z,15
2018-03-04T10:08:24.066Z,15
2018-03-04T10:09:24.638Z,15
2018-03-04T10:10:25.207Z,15
2018-03-04T10:11:25.781Z,15
2018-03-04T10:12:26.351Z,15
2018-03-04T10:13:26.923Z,15
2018-03-04T10:14:27.495Z,15
2018-03-04T10:15:28.069Z,15
2018-03-04T10:16:28.635Z,15
2018-03-04T10:17:29.206Z,15
2018-03-04T10:18:29.779Z,15
2018-03-04T10:19:30.351Z,10
2018-03-04T10:20:30.923Z,10
2018-03-04T10:21:31.495Z,10
2018-03-04T10:22:32.066Z,10
2018-03-04T10:23:32.637Z,10
2018-03-04T10:24:33.209Z,10
2018-03-04T10:25:33.780Z,10
2018-03-04T10:26:34.351Z,10
2018-03-04T10:27:34.923Z,15
2018-03-04T10:28:35.494Z,15
2018-03-04T10:29:36.066Z,15
2018-03-04T10:30:36.653Z,15
2018-03-04T10:31:37.227Z,15
2018-03-04T10:32:37.811Z,15
2018-03-04T10:33:38.396Z,15
2018-03-04T10:34:38.968Z,15
2018-03-04T10:35:39.540Z,15
2018-03-04T10:36:40.154Z,15
2018-03-04T10:37:40.684Z,15
2018-03-04T10:38:41.256Z,15
2018-03-04T10:39:41.875Z,15
2018-03-04T10:40:42.407Z,15
2018-03-04T10:41:42.972Z,15
2018-03-04T10:42:43.547Z,15
2018-03-04T10:43:44.119Z,20
2018-03-04T10:44:44.688Z,20
2018-03-04T10:45:45.261Z,20
2018-03-04T10:46:45.832Z,20
2018-03-04T10:47:46.403Z,20
2018-03-04T10:48:46.975Z,20
2018-03-04T10:49:47.548Z,20
2018-03-04T10:50:48.120Z,20
2018-03-04T10:51:48.693Z,20
2018-03-04T10:52:49.265Z,20
2018-03-04T10:53:49.837Z,20
2018-03-04T10:54:50.410Z,20
2018-03-04T10:55:50.980Z,20
2018-03-04T10:56:51.552Z,20
2018-03-04T10:57:52.126Z,20
2018-03-04T10:58:52.698Z,20
2018-03-04T10:59:53.271Z,20
2018-03-04T11:00:53.844Z,20
2018-03-04T11:01:54.416Z,20
2018-03-04T11:02:54.988Z,20
2018-03-04T11:03:55.619Z,20
2018-03-04T11:04:56.166Z,20
2018-03-04T11:05:56.732Z,20
2018-03-04T11:06:57.304Z,20
2018-03-04T11:07:57.878Z,20
2018-03-04T11:08:58.448Z,20
2018-03-04T11:09:59.027Z,20
2018-03-04T11:10:59.593Z,20
2018-03-04T11:12:00.165Z,20
2018-03-04T11:13:00.738Z,20
2018-03-04T11:14:01.310Z,20
2018-03-04T11:15:01.883Z,20
2018-03-04T11:16:02.455Z,30
2018-03-04T11:17:03.027Z,25
2018-03-04T11:18:03.601Z,20
2018-03-04T11:19:04.176Z,20
2018-03-04T11:20:04.747Z,20
2018-03-04T11:21:05.323Z,20
2018-03-04T11:22:05.908Z,20
2018-03-04T11:23:06.481Z,25
2018-03-04T11:24:07.053Z,25
2018-03-04T11:25:07.628Z,30
2018-03-04T11:26:08.200Z,30
2018-03-04T11:27:08.772Z,30
2018-03-04T11:28:09.345Z,30
2018-03-04T11:29:09.919Z,25
2018-03-04T11:30:10.493Z,25
2018-03-04T11:31:11.109Z,25
2018-03-04T11:32:11.640Z,25
2018-03-04T11:33:12.216Z,25
2018-03-04T11:34:12.785Z,25
2018-03-04T11:35:13.356Z,25
2018-03-04T11:36:13.930Z,25
2018-03-04T11:37:14.503Z,25
2018-03-04T11:38:15.076Z,25
2018-03-04T11:39:15.649Z,25
2018-03-04T11:40:16.229Z,25
2018-03-04T11:41:16.797Z,25
2018-03-04T11:42:17.374Z,25
2018-03-04T11:43:17.943Z,25
2018-03-04T11:44:18.520Z,25
2018-03-04T11:45:19.105Z,25
2018-03-04T11:46:19.675Z,25
2018-03-04T11:47:20.250Z,25
2018-03-04T11:48:20.824Z,25
2018-03-04T11:49:21.396Z,25
2018-03-04T11:50:21.970Z,25
2018-03-04T11:51:22.544Z,25
2018-03-04T11:52:23.117Z,25
2018-03-04T11:53:23.694Z,25
2018-03-04T11:54:24.268Z,25
2018-03-04T11:55:24.837Z,25
2018-03-04T11:56:25.411Z,25
2018-03-04T11:57:25.986Z,25
2018-03-04T11:58:26.560Z,25
2018-03-04T11:59:27.134Z,25
2018-03-04T12:00:27.708Z,25
2018-03-04T12:01:28.283Z,25
2018-03-04T12:02:28.856Z,25
2018-03-04T12:03:29.431Z,25
2018-03-04T12:04:30.004Z,25
2018-03-04T12:05:30.577Z,25
2018-03-04T12:06:31.167Z,25
2018-03-04T12:07:31.740Z,25
2018-03-04T12:08:32.314Z,25
2018-03-04T12:09:32.897Z,25
2018-03-04T12:10:33.462Z,25
2018-03-04T12:11:34.039Z,25
2018-03-04T12:12:34.611Z,25
2018-03-04T12:13:35.185Z,25
2018-03-04T12:14:35.773Z,25
2018-03-04T12:15:36.347Z,25
2018-03-04T12:16:36.922Z,25
2018-03-04T12:17:37.498Z,25
2018-03-04T12:18:38.085Z,25
2018-03-04T12:19:38.672Z,25
2018-03-04T12:20:39.246Z,25
2018-03-04T12:21:39.822Z,25
2018-03-04T12:22:40.404Z,30
2018-03-04T12:23:40.972Z,30
2018-03-04T12:24:41.562Z,35
2018-03-04T12:25:42.136Z,35
2018-03-04T12:26:42.711Z,30
2018-03-04T12:27:43.288Z,30
2018-03-04T12:28:43.860Z,30
2018-03-04T12:29:44.435Z,20
2018-03-04T12:30:45.009Z,20
2018-03-04T12:31:45.584Z,20
2018-03-04T12:32:46.160Z,20
2018-03-04T12:33:46.736Z,20
2018-03-04T12:34:47.309Z,20
2018-03-04T12:35:47.884Z,25
2018-03-04T12:36:48.459Z,25
2018-03-04T12:37:49.035Z,25
2018-03-04T12:38:49.608Z,25
2018-03-04T12:39:50.182Z,25
2018-03-04T12:40:50.758Z,30
2018-03-04T12:41:51.333Z,35
2018-03-04T12:42:51.907Z,35
2018-03-04T12:43:52.483Z,35
2018-03-04T12:44:53.057Z,35
2018-03-04T12:45:53.660Z,35
2018-03-04T12:46:54.208Z,35
2018-03-04T12:47:54.797Z,30
2018-03-04T12:48:55.373Z,30
2018-03-04T12:49:55.948Z,30
2018-03-04T12:50:56.525Z,30
2018-03-04T12:51:57.100Z,30
2018-03-04T12:52:57.676Z,30
2018-03-04T12:53:58.250Z,30
2018-03-04T12:54:58.839Z,30
2018-03-04T12:55:59.418Z,25
2018-03-04T12:56:59.991Z,25
2018-03-04T12:58:00.567Z,25
2018-03-04T12:59:01.150Z,25
2018-03-04T13:00:01.751Z,25
2018-03-04T13:01:02.331Z,25
2018-03-04T13:02:02.908Z,25
2018-03-04T13:03:03.497Z,25
2018-03-04T13:04:04.074Z,25
2018-03-04T13:05:04.650Z,25
2018-03-04T13:06:05.223Z,25
2018-03-04T13:07:05.799Z,25
2018-03-04T13:08:06.384Z,25
2018-03-04T13:09:06.951Z,25
2018-03-04T13:10:07.526Z,25
2018-03-04T13:11:08.103Z,25
2018-03-04T13:12:08.680Z,25
2018-03-04T13:13:09.254Z,25
2018-03-04T13:14:09.830Z,25
2018-03-04T13:15:10.405Z,25
2018-03-04T13:16:10.981Z,25
2018-03-04T13:17:11.556Z,25
2018-03-04T13:18:12.138Z,25
2018-03-04T13:19:12.712Z,25
2018-03-04T13:20:13.288Z,25
2018-03-04T13:21:13.877Z,25
2018-03-04T13:22:14.455Z,25
2018-03-04T13:23:15.028Z,25
2018-03-04T13:24:15.605Z,25
2018-03-04T13:25:16.194Z,25
2018-03-04T13:26:16.769Z,25
2018-03-04T13:27:17.347Z,25
2018-03-04T13:28:17.922Z,25
2018-03-04T13:29:18.496Z,25
2018-03-04T13:30:19.070Z,25
2018-03-04T13:31:19.645Z,25
2018-03-04T13:32:20.239Z,25
2018-03-04T13:33:20.814Z,25
2018-03-04T13:34:21.447Z,25
2018-03-04T13:35:21.966Z,25
2018-03-04T13:36:22.546Z,25
2018-03-04T13:37:23.119Z,25
2018-03-04T13:38:23.696Z,25
2018-03-04T13:39:24.274Z,25
2018-03-04T13:40:24.850Z,25
2018-03-04T13:41:25.427Z,25
2018-03-04T13:42:26.019Z,25
2018-03-04T13:43:26.595Z,25
2018-03-04T13:44:27.185Z,25
2018-03-04T13:45:27.762Z,25
2018-03-04T13:46:28.369Z,25
2018-03-04T13:47:28.916Z,25
2018-03-04T13:48:29.494Z,25
2018-03-04T13:49:30.072Z,25
2018-03-04T13:50:30.649Z,25
2018-03-04T13:51:31.226Z,25
2018-03-04T13:52:31.804Z,25
2018-03-04T13:53:32.380Z,25
2018-03-04T13:54:32.956Z,25
2018-03-04T13:55:33.535Z,25
2018-03-04T13:56:34.113Z,25
2018-03-04T13:57:34.697Z,25
2018-03-04T13:58:35.277Z,25
2018-03-04T13:59:35.852Z,25
2018-03-04T14:00:36.426Z,25
2018-03-04T14:01:37.000Z,25
2018-03-04T14:02:37.575Z,25
2018-03-04T14:03:38.152Z,25
2018-03-04T14:04:38.729Z,25
2018-03-04T14:05:39.308Z,30
2018-03-04T14:06:39.886Z,30
2018-03-04T14:07:40.470Z,30
2018-03-04T14:08:41.040Z,30
2018-03-04T14:09:41.618Z,30
2018-03-04T14:10:42.196Z,30
2018-03-04T14:11:42.775Z,35
2018-03-04T14:12:43.353Z,30
2018-03-04T14:13:43.929Z,30
2018-03-04T14:14:44.506Z,30
2018-03-04T14:15:45.097Z,30
2018-03-04T14:16:45.676Z,30
2018-03-04T14:17:46.253Z,30
2018-03-04T14:18:46.830Z,30
2018-03-04T14:19:47.409Z,30
2018-03-04T14:20:47.985Z,30
2018-03-04T14:21:48.569Z,25
2018-03-04T14:22:49.142Z,25
2018-03-04T14:23:49.734Z,25
2018-03-04T14:24:50.312Z,25
2018-03-04T14:25:50.888Z,30
2018-03-04T14:26:51.465Z,25
2018-03-04T14:27:52.045Z,25
2018-03-04T14:28:52.622Z,25
2018-03-04T14:29:53.200Z,25
2018-03-04T14:30:53.777Z,25
2018-03-04T14:31:54.354Z,25
2018-03-04T14:32:54.937Z,25
2018-03-04T14:33:55.512Z,25
2018-03-04T14:34:56.089Z,25
2018-03-04T14:35:56.666Z,25
2018-03-04T14:36:57.306Z,25
2018-03-04T14:37:57.821Z,25
2018-03-04T14:38:58.399Z,25
2018-03-04T14:39:58.975Z,25
2018-03-04T14:40:59.554Z,25
2018-03-04T14:42:00.144Z,25
2018-03-04T14:43:00.723Z,25